KADM

Ardmore Municipal Airport

Ardmore, Oklahoma, USA
METAR KADM 190315Z AUTO 18005KT 10SM CLR 02/M09 A3026 RMK AO2 T00201086
Observed Flight Rules
Jan-19 @ 03:15 UTC (27 minutes ago) Visual Flight Rules
Wind Visibility Clouds
180° at 5 knots 10 miles
  • Clear skies
Temperatures Readings
Current 2°C / 36°F
Dewpoint -9°C / 16°F
Humidity 44%
Altimeter 30.26" Hg
Pressure 1025 hPa
Elevation 232
METAR KADM 190315Z AUTO 18005KT 10SM CLR 02/M09 A3026 RMK AO2 T00201086
Observed Flight Rules
Jan-19 @ 03:15 UTC
(27 minutes ago)
VFR
Wind Visibility
180° at 5 knots 10 miles
Clouds
  • Clear skies
Temperature Dewpoint
2°C / 36°F -9°C / 16°F
Humidity Altimeter Pressure
44% 30.26" Hg 1025 hPa